createdAt,value
2022-10-19T00:01:12.102Z,9.94
2022-10-19T00:03:39.750Z,9.89
2022-10-19T00:06:26.192Z,9.99
2022-10-19T00:09:18.181Z,10.06
2022-10-19T00:11:50.043Z,10.04
2022-10-19T00:14:22.872Z,10.01
2022-10-19T00:16:51.212Z,10.01
2022-10-19T00:19:21.988Z,9.99
2022-10-19T00:24:16.054Z,10.11
2022-10-19T00:26:43.579Z,10.24
2022-10-19T00:29:12.466Z,10.30
2022-10-19T00:31:39.342Z,10.22
2022-10-19T00:34:06.147Z,10.21
2022-10-19T00:36:35.076Z,10.23
2022-10-19T00:39:03.936Z,10.17
2022-10-19T00:41:32.871Z,10.21
2022-10-19T00:44:02.595Z,10.26
2022-10-19T00:46:31.997Z,10.31
2022-10-19T00:49:04.011Z,10.20
2022-10-19T00:51:33.487Z,10.25
2022-10-19T00:54:02.651Z,10.20
2022-10-19T00:56:29.487Z,10.22
2022-10-19T00:58:56.446Z,10.20
2022-10-19T01:01:27.329Z,10.21
2022-10-19T01:03:54.080Z,10.14
2022-10-19T01:06:21.220Z,10.15
2022-10-19T01:08:47.862Z,10.14
2022-10-19T01:11:14.583Z,10.13
2022-10-19T01:14:05.578Z,10.23
2022-10-19T01:17:17.306Z,10.20
2022-10-19T01:20:05.997Z,10.22
2022-10-19T01:23:03.670Z,10.36
2022-10-19T01:25:39.375Z,10.29
2022-10-19T01:28:17.233Z,10.28
2022-10-19T01:30:58.892Z,10.38
2022-10-19T01:33:41.453Z,10.48
2022-10-19T01:36:29.926Z,10.42
2022-10-19T01:39:13.006Z,10.41
2022-10-19T01:41:58.194Z,10.56
2022-10-19T01:44:48.384Z,10.53
2022-10-19T01:47:31.170Z,10.54
2022-10-19T01:50:16.595Z,10.58
2022-10-19T01:52:44.056Z,10.67
2022-10-19T01:55:14.814Z,10.60
2022-10-19T01:57:47.041Z,10.60
2022-10-19T02:00:16.566Z,10.67
2022-10-19T02:02:47.882Z,10.79
2022-10-19T02:05:17.791Z,10.75
2022-10-19T02:07:49.512Z,10.81
2022-10-19T02:10:16.329Z,10.87
2022-10-19T02:12:43.928Z,10.83
2022-10-19T02:15:14.681Z,10.81
2022-10-19T02:17:49.205Z,10.81
2022-10-19T02:20:17.091Z,10.90
2022-10-19T02:22:44.391Z,10.88
2022-10-19T02:25:12.188Z,10.88
2022-10-19T02:27:43.594Z,10.89
2022-10-19T02:30:13.034Z,10.87
2022-10-19T02:32:39.963Z,10.88
2022-10-19T02:35:07.266Z,10.89
2022-10-19T02:37:34.226Z,10.86
2022-10-19T02:40:01.264Z,10.89
2022-10-19T02:42:50.987Z,10.93
2022-10-19T02:45:23.742Z,10.98
2022-10-19T02:47:55.133Z,11.08
2022-10-19T02:50:22.593Z,11.37
2022-10-19T02:52:49.270Z,11.51
2022-10-19T02:55:16.108Z,11.73
2022-10-19T02:57:42.857Z,11.89
2022-10-19T03:00:10.797Z,12.13
2022-10-19T03:02:37.638Z,12.29
2022-10-19T03:05:04.814Z,12.34
2022-10-19T03:07:31.736Z,12.37
2022-10-19T03:09:58.541Z,12.55
2022-10-19T03:12:25.213Z,12.62
2022-10-19T03:14:51.864Z,12.68
2022-10-19T03:17:18.630Z,12.72
2022-10-19T03:19:45.454Z,12.82
2022-10-19T03:22:13.864Z,12.97
2022-10-19T03:24:40.620Z,12.97
2022-10-19T03:27:07.347Z,12.97
2022-10-19T03:29:33.994Z,12.94
2022-10-19T03:32:00.748Z,12.90
2022-10-19T03:34:27.535Z,12.92
2022-10-19T03:36:54.317Z,12.95
2022-10-19T03:39:20.992Z,12.87
2022-10-19T03:41:47.680Z,13.23
2022-10-19T03:44:14.357Z,13.28
2022-10-19T03:46:41.252Z,13.42
2022-10-19T03:49:09.337Z,13.53
2022-10-19T03:51:36.232Z,13.57
2022-10-19T03:54:06.100Z,13.51
2022-10-19T03:56:34.080Z,13.52
2022-10-19T03:59:02.516Z,13.65
2022-10-19T04:01:41.391Z,13.62
2022-10-19T04:04:12.162Z,13.81
2022-10-19T04:06:41.218Z,13.77
2022-10-19T04:09:09.358Z,13.92
2022-10-19T04:11:36.605Z,13.93
2022-10-19T04:14:03.842Z,13.99
2022-10-19T04:16:32.226Z,14.00
2022-10-19T04:18:59.510Z,14.05
2022-10-19T04:21:33.483Z,14.01
2022-10-19T04:24:04.996Z,14.00
2022-10-19T04:26:32.480Z,14.05
2022-10-19T04:29:00.428Z,14.08
2022-10-19T04:31:28.671Z,14.08
2022-10-19T04:33:56.364Z,14.06
2022-10-19T04:36:23.995Z,14.11
2022-10-19T04:38:51.021Z,14.16
2022-10-19T04:41:20.103Z,14.20
2022-10-19T04:43:47.904Z,14.21
2022-10-19T04:46:19.845Z,14.16
2022-10-19T04:48:48.284Z,14.15
2022-10-19T04:51:15.859Z,14.16
2022-10-19T04:53:44.099Z,14.17
2022-10-19T04:56:22.495Z,14.11
2022-10-19T04:58:49.586Z,14.15
2022-10-19T05:01:20.869Z,14.13
2022-10-19T05:03:48.626Z,14.12
2022-10-19T05:06:16.168Z,14.17
2022-10-19T05:08:42.865Z,14.17
2022-10-19T05:11:14.406Z,14.14
2022-10-19T05:13:42.701Z,14.13
2022-10-19T05:16:12.750Z,14.12
2022-10-19T05:18:40.000Z,14.15
2022-10-19T05:21:10.087Z,14.13
2022-10-19T05:23:37.184Z,14.14
2022-10-19T05:26:06.616Z,14.15
2022-10-19T05:28:33.964Z,14.15
2022-10-19T05:31:09.920Z,14.08
2022-10-19T05:33:37.672Z,14.07
2022-10-19T05:36:20.974Z,14.13
2022-10-19T05:38:50.034Z,14.14
2022-10-19T05:41:17.329Z,14.20
2022-10-19T05:43:45.116Z,14.21
2022-10-19T05:46:14.421Z,14.24
2022-10-19T05:48:41.669Z,14.31
2022-10-19T05:51:11.998Z,14.33
2022-10-19T05:56:17.306Z,14.40
2022-10-19T05:58:44.766Z,14.45
2022-10-19T06:01:12.665Z,14.52
2022-10-19T06:03:39.349Z,14.57
2022-10-19T06:06:07.946Z,14.55
2022-10-19T06:08:35.176Z,14.60
2022-10-19T06:11:33.934Z,14.61
2022-10-19T06:14:02.573Z,14.63
2022-10-19T06:16:30.918Z,14.70
2022-10-19T06:18:58.188Z,14.76
2022-10-19T06:21:27.321Z,14.83
2022-10-19T06:23:56.823Z,14.88
2022-10-19T06:26:24.547Z,14.91
2022-10-19T06:28:52.109Z,14.97
2022-10-19T06:31:18.770Z,15.02
2022-10-19T06:33:49.211Z,15.02
2022-10-19T06:36:19.497Z,15.08
2022-10-19T06:38:46.967Z,15.12
2022-10-19T06:41:14.189Z,15.14
2022-10-19T06:43:43.050Z,15.15
2022-10-19T06:46:17.530Z,15.16
2022-10-19T06:48:44.266Z,15.21
2022-10-19T06:51:12.035Z,15.26
2022-10-19T06:53:38.829Z,15.27
2022-10-19T06:56:06.774Z,15.34
2022-10-19T06:58:38.261Z,15.36
2022-10-19T07:01:07.760Z,15.37
2022-10-19T07:03:35.648Z,15.36
2022-10-19T07:06:05.490Z,15.38
2022-10-19T07:08:32.627Z,15.44
2022-10-19T07:11:02.641Z,15.42
2022-10-19T07:13:30.431Z,15.47
2022-10-19T07:16:07.018Z,15.53
2022-10-19T07:18:35.346Z,15.59
2022-10-19T07:21:04.704Z,15.61
2022-10-19T07:23:33.133Z,15.70
2022-10-19T07:26:05.411Z,15.75
2022-10-19T07:28:32.407Z,15.78
2022-10-19T07:30:59.127Z,15.79
2022-10-19T07:33:26.109Z,15.86
2022-10-19T07:35:59.406Z,15.87
2022-10-19T07:38:26.092Z,15.82
2022-10-19T07:41:14.170Z,15.81
2022-10-19T07:43:43.125Z,15.85
2022-10-19T07:46:13.467Z,15.89
2022-10-19T07:48:40.156Z,15.92
2022-10-19T07:51:08.894Z,15.86
2022-10-19T07:53:36.579Z,15.84
2022-10-19T07:56:09.174Z,15.88
2022-10-19T07:58:36.634Z,15.89
2022-10-19T08:01:06.381Z,15.91
2022-10-19T08:06:22.015Z,15.98
2022-10-19T08:08:49.488Z,16.01
2022-10-19T08:11:23.638Z,16.08
2022-10-19T08:13:50.726Z,16.10
2022-10-19T08:16:28.604Z,16.14
2022-10-19T08:19:01.230Z,16.19
2022-10-19T08:21:29.189Z,16.24
2022-10-19T08:23:56.109Z,16.32
2022-10-19T08:26:23.202Z,16.32
2022-10-19T08:28:49.920Z,16.35
2022-10-19T08:31:22.242Z,16.40
2022-10-19T08:33:50.620Z,16.43
2022-10-19T08:36:19.670Z,16.49
2022-10-19T08:38:48.593Z,16.53
2022-10-19T08:41:34.257Z,16.62
2022-10-19T08:44:19.137Z,16.67
2022-10-19T08:47:14.059Z,16.66
2022-10-19T08:49:41.864Z,16.70
2022-10-19T08:52:20.206Z,16.73
2022-10-19T08:54:58.878Z,16.82
2022-10-19T08:57:34.846Z,16.89
2022-10-19T09:00:20.986Z,16.91
2022-10-19T09:03:31.918Z,16.96
2022-10-19T09:06:19.928Z,17.11
2022-10-19T09:08:49.939Z,17.20
2022-10-19T09:11:22.703Z,17.25
2022-10-19T09:14:04.663Z,17.26
2022-10-19T09:16:33.038Z,17.25
2022-10-19T09:18:59.710Z,17.35
2022-10-19T09:21:46.312Z,17.37
2022-10-19T09:24:20.091Z,17.43
2022-10-19T09:26:53.703Z,17.49
2022-10-19T09:29:30.009Z,17.49
2022-10-19T09:32:00.624Z,17.53
2022-10-19T09:34:33.473Z,17.55
2022-10-19T09:37:00.957Z,17.52
2022-10-19T09:39:29.943Z,17.54
2022-10-19T09:42:08.365Z,17.57
2022-10-19T09:44:35.038Z,17.60
2022-10-19T09:47:20.636Z,17.62
2022-10-19T09:49:48.941Z,17.68
2022-10-19T09:52:39.467Z,17.72
2022-10-19T09:55:15.785Z,17.76
2022-10-19T09:57:46.878Z,17.82
2022-10-19T10:00:22.296Z,17.86
2022-10-19T10:02:54.402Z,17.94
2022-10-19T10:05:36.683Z,17.96
2022-10-19T10:08:05.077Z,18.05
2022-10-19T10:10:38.447Z,18.13
2022-10-19T10:13:06.114Z,18.20
2022-10-19T10:15:44.200Z,18.20
2022-10-19T10:18:16.765Z,18.32
2022-10-19T10:21:04.909Z,18.35
2022-10-19T10:23:36.429Z,18.42
2022-10-19T10:26:04.377Z,18.43
2022-10-19T10:28:31.524Z,18.55
2022-10-19T10:31:04.928Z,18.68
2022-10-19T10:33:49.207Z,18.71
2022-10-19T10:36:15.913Z,18.78
2022-10-19T10:38:47.364Z,18.88
2022-10-19T10:41:20.206Z,19.00
2022-10-19T10:44:04.617Z,19.10
2022-10-19T10:46:39.422Z,19.15
2022-10-19T10:49:16.725Z,19.26
2022-10-19T10:51:50.658Z,19.35
2022-10-19T10:54:31.395Z,19.44
2022-10-19T10:57:20.029Z,19.53
2022-10-19T10:59:49.814Z,19.58
2022-10-19T11:02:31.891Z,19.56
2022-10-19T11:05:17.634Z,19.57
2022-10-19T11:07:48.383Z,19.55
2022-10-19T11:10:44.296Z,19.44
2022-10-19T11:13:13.985Z,19.57
2022-10-19T11:15:59.001Z,19.53
2022-10-19T11:18:32.440Z,19.55
2022-10-19T11:21:07.381Z,19.47
2022-10-19T11:23:49.257Z,19.56
2022-10-19T11:26:53.724Z,19.58
2022-10-19T11:29:55.725Z,19.41
2022-10-19T11:32:48.114Z,19.46
2022-10-19T11:35:50.373Z,19.49
2022-10-19T11:38:35.936Z,19.28
2022-10-19T11:41:38.925Z,19.11
2022-10-19T11:44:26.369Z,18.97
2022-10-19T11:47:08.167Z,18.92
2022-10-19T11:50:16.329Z,18.85
2022-10-19T11:53:08.048Z,18.99
2022-10-19T11:56:13.594Z,18.93
2022-10-19T11:59:05.646Z,19.01
2022-10-19T12:02:05.195Z,19.19
2022-10-19T12:04:37.756Z,19.13
2022-10-19T12:07:16.585Z,19.03
2022-10-19T12:09:55.146Z,19.05
2022-10-19T12:12:38.879Z,19.13
2022-10-19T12:15:18.859Z,19.04
2022-10-19T12:17:50.165Z,19.04
2022-10-19T12:20:24.929Z,18.93
2022-10-19T12:22:51.962Z,18.95
2022-10-19T12:25:20.036Z,18.87
2022-10-19T12:27:49.186Z,18.82
2022-10-19T12:30:22.469Z,18.76
2022-10-19T12:33:06.582Z,18.72
2022-10-19T12:35:53.518Z,18.58
2022-10-19T12:38:50.914Z,18.57
2022-10-19T12:41:24.938Z,18.60
2022-10-19T12:44:13.130Z,18.66
2022-10-19T12:47:00.846Z,18.68
2022-10-19T12:49:34.486Z,18.70
2022-10-19T12:52:02.421Z,18.78
2022-10-19T12:54:32.631Z,19.10
2022-10-19T12:57:01.806Z,19.13
2022-10-19T12:59:37.213Z,19.04
2022-10-19T13:02:24.380Z,18.79
2022-10-19T13:04:54.403Z,18.73
2022-10-19T13:07:21.191Z,19.39
2022-10-19T13:09:48.890Z,19.00
2022-10-19T13:12:25.619Z,18.78
2022-10-19T13:15:00.997Z,18.69
2022-10-19T13:17:36.656Z,18.64
2022-10-19T13:20:15.746Z,18.49
2022-10-19T13:22:45.055Z,18.49
2022-10-19T13:25:24.256Z,18.56
2022-10-19T13:27:52.859Z,18.52
2022-10-19T13:30:44.118Z,18.50
2022-10-19T13:33:26.028Z,18.51
2022-10-19T13:35:58.847Z,18.52
2022-10-19T13:38:32.966Z,18.45
2022-10-19T13:41:06.965Z,18.32
2022-10-19T13:43:55.416Z,18.16
2022-10-19T13:46:31.928Z,18.14
2022-10-19T13:49:02.286Z,18.13
2022-10-19T13:51:47.465Z,18.08
2022-10-19T13:54:19.923Z,17.97
2022-10-19T13:56:49.584Z,17.84
2022-10-19T13:59:59.638Z,17.88
2022-10-19T14:03:06.613Z,17.92
2022-10-19T14:05:54.832Z,17.91
2022-10-19T14:08:43.288Z,17.86
2022-10-19T14:11:32.114Z,17.72
2022-10-19T14:14:11.121Z,17.60
2022-10-19T14:17:01.193Z,17.52
2022-10-19T14:19:34.180Z,17.46
2022-10-19T14:22:17.371Z,17.46
2022-10-19T14:24:44.225Z,17.45
2022-10-19T14:27:18.520Z,17.52
2022-10-19T14:29:48.122Z,17.50
2022-10-19T14:32:15.666Z,17.46
2022-10-19T14:34:44.723Z,17.52
2022-10-19T14:37:23.526Z,17.51
2022-10-19T14:40:08.569Z,17.44
2022-10-19T14:42:43.854Z,17.38
2022-10-19T14:45:23.341Z,17.35
2022-10-19T14:48:03.842Z,17.39
2022-10-19T14:50:39.564Z,17.43
2022-10-19T14:53:37.348Z,17.47
2022-10-19T14:56:15.386Z,17.39
2022-10-19T14:58:51.325Z,17.35
2022-10-19T15:01:20.225Z,17.31
2022-10-19T15:03:49.010Z,17.19
2022-10-19T15:06:42.546Z,17.18
2022-10-19T15:09:37.372Z,17.17
2022-10-19T15:12:19.790Z,17.16
2022-10-19T15:14:47.961Z,17.20
2022-10-19T15:17:22.975Z,17.14
2022-10-19T15:19:49.885Z,17.03
2022-10-19T15:22:20.262Z,16.86
2022-10-19T15:25:07.729Z,16.80
2022-10-19T15:27:34.371Z,16.83
2022-10-19T15:30:22.930Z,16.68
2022-10-19T15:33:01.792Z,16.67
2022-10-19T15:35:35.146Z,16.59
2022-10-19T15:38:10.163Z,16.53
2022-10-19T15:40:40.770Z,16.57
2022-10-19T15:43:34.956Z,16.46
2022-10-19T15:46:05.409Z,16.34
2022-10-19T15:48:49.942Z,16.26
2022-10-19T15:51:25.499Z,16.23
2022-10-19T15:53:59.928Z,16.21
2022-10-19T15:56:29.246Z,16.13
2022-10-19T15:58:58.314Z,16.08
2022-10-19T16:01:27.366Z,16.04
2022-10-19T16:03:54.916Z,15.96
2022-10-19T16:06:24.809Z,15.91
2022-10-19T16:08:51.402Z,15.85
2022-10-19T16:11:21.264Z,15.86
2022-10-19T16:13:47.972Z,15.78
2022-10-19T16:16:33.444Z,15.74
2022-10-19T16:19:00.856Z,15.69
2022-10-19T16:21:30.754Z,15.62
2022-10-19T16:23:58.158Z,15.57
2022-10-19T16:26:26.278Z,15.53
2022-10-19T16:28:54.265Z,15.48
2022-10-19T16:31:21.653Z,15.42
2022-10-19T16:33:48.333Z,15.48
2022-10-19T16:36:15.438Z,15.46
2022-10-19T16:38:42.100Z,15.40
2022-10-19T16:41:10.860Z,15.35
2022-10-19T16:43:37.985Z,15.19
2022-10-19T16:46:05.641Z,15.10
2022-10-19T16:48:32.849Z,15.08
2022-10-19T16:51:05.683Z,15.03
2022-10-19T16:53:33.562Z,14.85
2022-10-19T16:56:08.938Z,14.76
2022-10-19T16:58:37.314Z,14.71
2022-10-19T17:01:08.364Z,14.47
2022-10-19T17:03:35.760Z,14.36
2022-10-19T17:06:03.804Z,14.19
2022-10-19T17:08:37.197Z,14.15
2022-10-19T17:11:23.684Z,14.00
2022-10-19T17:13:52.749Z,13.85
2022-10-19T17:16:21.304Z,13.80
2022-10-19T17:18:48.620Z,13.72
2022-10-19T17:21:19.039Z,13.68
2022-10-19T17:23:46.360Z,13.56
2022-10-19T17:26:13.726Z,13.54
2022-10-19T17:28:40.801Z,13.33
2022-10-19T17:31:12.860Z,13.27
2022-10-19T17:33:40.942Z,13.18
2022-10-19T17:36:11.984Z,13.17
2022-10-19T17:38:39.570Z,13.18
2022-10-19T17:41:16.485Z,13.15
2022-10-19T17:43:45.522Z,13.29
2022-10-19T17:46:14.550Z,13.55
2022-10-19T17:48:43.074Z,13.70
2022-10-19T17:51:16.835Z,13.91
2022-10-19T17:53:45.492Z,14.06
2022-10-19T17:56:18.055Z,14.17
2022-10-19T17:58:45.363Z,14.28
2022-10-19T18:01:13.026Z,14.38
2022-10-19T18:03:40.303Z,14.50
2022-10-19T18:06:10.870Z,14.62
2022-10-19T18:08:40.809Z,14.75
2022-10-19T18:11:13.154Z,14.85
2022-10-19T18:13:40.528Z,14.93
2022-10-19T18:16:13.306Z,14.96
2022-10-19T18:18:42.279Z,15.02
2022-10-19T18:21:11.532Z,15.03
2022-10-19T18:23:38.991Z,15.04
2022-10-19T18:26:13.490Z,15.06
2022-10-19T18:28:40.634Z,15.10
2022-10-19T18:31:16.107Z,15.15
2022-10-19T18:33:43.122Z,15.14
2022-10-19T18:36:10.803Z,15.12
2022-10-19T18:38:38.452Z,15.08
2022-10-19T18:41:25.912Z,15.10
2022-10-19T18:43:55.423Z,15.06
2022-10-19T18:46:23.409Z,15.08
2022-10-19T18:48:50.209Z,15.08
2022-10-19T18:51:18.499Z,15.07
2022-10-19T18:53:46.370Z,15.08
2022-10-19T18:56:15.582Z,15.03
2022-10-19T18:58:43.246Z,15.04
2022-10-19T19:01:24.221Z,14.99
2022-10-19T19:03:53.300Z,14.99
2022-10-19T19:06:30.401Z,14.94
2022-10-19T19:08:58.834Z,14.97
2022-10-19T19:11:29.582Z,14.90
2022-10-19T19:14:06.251Z,14.82
2022-10-19T19:16:36.500Z,14.93
2022-10-19T19:19:04.635Z,14.86
2022-10-19T19:21:32.006Z,14.84
2022-10-19T19:24:00.769Z,14.91
2022-10-19T19:26:30.589Z,14.82
2022-10-19T19:29:00.051Z,14.79
2022-10-19T19:31:26.756Z,14.81
2022-10-19T19:33:53.408Z,14.79
2022-10-19T19:36:21.008Z,14.74
2022-10-19T19:38:50.549Z,14.73
2022-10-19T19:41:17.742Z,14.68
2022-10-19T19:43:44.901Z,14.64
2022-10-19T19:46:17.402Z,14.55
2022-10-19T19:48:46.326Z,14.53
2022-10-19T19:51:16.787Z,14.59
2022-10-19T19:53:44.075Z,14.56
2022-10-19T19:56:12.312Z,14.50
2022-10-19T19:58:39.446Z,14.49
2022-10-19T20:01:19.219Z,14.38
2022-10-19T20:03:46.373Z,14.42
2022-10-19T20:06:18.679Z,14.35
2022-10-19T20:08:47.640Z,14.40
2022-10-19T20:11:16.227Z,14.32
2022-10-19T20:13:44.543Z,14.25
2022-10-19T20:16:13.736Z,14.22
2022-10-19T20:18:41.451Z,14.14
2022-10-19T20:21:08.184Z,14.09
2022-10-19T20:23:35.073Z,14.06
2022-10-19T20:26:02.109Z,14.08
2022-10-19T20:28:32.110Z,14.07
2022-10-19T20:31:06.571Z,14.04
2022-10-19T20:33:35.195Z,13.92
2022-10-19T20:36:13.310Z,13.89
2022-10-19T20:38:40.740Z,13.87
2022-10-19T20:41:09.481Z,13.89
2022-10-19T20:43:37.624Z,13.78
2022-10-19T20:46:05.948Z,13.79
2022-10-19T20:48:33.081Z,13.80
2022-10-19T20:51:21.347Z,13.80
2022-10-19T20:53:50.263Z,13.69
2022-10-19T20:56:23.213Z,13.70
2022-10-19T20:59:05.063Z,13.58
2022-10-19T21:01:33.910Z,13.53
2022-10-19T21:04:03.350Z,13.48
2022-10-19T21:06:31.823Z,13.52
2022-10-19T21:08:59.817Z,13.50
2022-10-19T21:11:35.468Z,13.45
2022-10-19T21:14:05.984Z,13.45
2022-10-19T21:16:34.101Z,13.52
2022-10-19T21:19:02.780Z,13.48
2022-10-19T21:21:32.177Z,13.46
2022-10-19T21:24:01.278Z,13.41
2022-10-19T21:26:28.648Z,13.33
2022-10-19T21:28:55.821Z,13.27
2022-10-19T21:31:25.002Z,13.27
2022-10-19T21:33:52.211Z,13.24
2022-10-19T21:36:21.086Z,13.25
2022-10-19T21:38:48.136Z,13.15
2022-10-19T21:41:20.959Z,13.21
2022-10-19T21:43:50.674Z,13.22
2022-10-19T21:46:19.659Z,13.15
2022-10-19T21:48:46.842Z,13.12
2022-10-19T21:51:33.783Z,13.17
2022-10-19T21:54:01.640Z,13.08
2022-10-19T21:56:28.630Z,13.07
2022-10-19T21:58:56.017Z,13.12
2022-10-19T22:01:26.090Z,13.06
2022-10-19T22:04:04.605Z,13.03
2022-10-19T22:06:33.395Z,13.00
2022-10-19T22:09:01.509Z,13.00
2022-10-19T22:11:28.816Z,12.86
2022-10-19T22:13:57.263Z,12.84
2022-10-19T22:16:25.104Z,12.81
2022-10-19T22:18:52.686Z,12.81
2022-10-19T22:21:23.073Z,12.78
2022-10-19T22:24:00.588Z,12.63
2022-10-19T22:26:30.359Z,12.58
2022-10-19T22:28:58.558Z,12.48
2022-10-19T22:31:27.202Z,12.52
2022-10-19T22:33:53.947Z,12.43
2022-10-19T22:36:20.750Z,12.38
2022-10-19T22:38:47.835Z,12.39
2022-10-19T22:42:10.560Z,12.34
2022-10-19T22:44:49.300Z,12.28
2022-10-19T22:47:16.040Z,12.25
2022-10-19T22:49:42.919Z,12.28
2022-10-19T22:52:09.686Z,12.17
2022-10-19T22:54:36.372Z,12.20
2022-10-19T22:57:03.612Z,12.16
2022-10-19T22:59:33.761Z,12.21
2022-10-19T23:02:06.403Z,12.14
2022-10-19T23:04:36.766Z,12.08
2022-10-19T23:07:05.079Z,11.99
2022-10-19T23:09:34.275Z,12.00
2022-10-19T23:12:05.347Z,11.96
2022-10-19T23:14:35.643Z,12.01
2022-10-19T23:17:04.670Z,12.19
2022-10-19T23:19:35.906Z,12.20
2022-10-19T23:22:09.177Z,12.18
2022-10-19T23:24:39.272Z,12.17
2022-10-19T23:27:09.196Z,12.13
2022-10-19T23:29:40.664Z,12.03
2022-10-19T23:32:12.388Z,12.05
2022-10-19T23:34:47.577Z,11.95
2022-10-19T23:37:17.049Z,11.92
2022-10-19T23:39:58.253Z,11.92
2022-10-19T23:42:25.443Z,11.88
2022-10-19T23:44:54.682Z,11.82
2022-10-19T23:47:22.558Z,11.73
2022-10-19T23:49:49.177Z,11.76
2022-10-19T23:52:16.975Z,11.67
2022-10-19T23:54:45.470Z,11.61
2022-10-19T23:57:16.955Z,11.59
2022-10-19T23:59:46.469Z,11.50
